Aviation Digital Data Service (ADDS)

Output produced by TAFs form (0531 UTC 07 February 2016)
found at http://aviationweather.gov/adds/tafs/
 
KTEX 070520Z 0706/0806 14005KT P6SM FEW130 
     FM071700 02006KT P6SM FEW250